sensor_id;sensor_type;location;lat;lon;timestamp;pressure;altitude;pressure_sealevel;temperature;humidity
75936;BME280;64614;32.062;34.834;2023-08-06T00:02:20;100425.75;;;29.47;57.03
75936;BME280;64614;32.062;34.834;2023-08-06T00:04:46;100417.44;;;29.47;56.70
75936;BME280;64614;32.062;34.834;2023-08-06T00:07:11;100423.81;;;29.48;56.95
75936;BME280;64614;32.062;34.834;2023-08-06T00:09:37;100426.91;;;29.46;57.08
75936;BME280;64614;32.062;34.834;2023-08-06T00:12:03;100424.16;;;29.46;56.71
75936;BME280;64614;32.062;34.834;2023-08-06T00:14:28;100426.13;;;29.46;57.01
75936;BME280;64614;32.062;34.834;2023-08-06T00:16:54;100427.72;;;29.47;56.73
75936;BME280;64614;32.062;34.834;2023-08-06T00:19:19;100423.34;;;29.46;56.95
75936;BME280;64614;32.062;34.834;2023-08-06T00:21:45;100427.72;;;29.47;57.00
75936;BME280;64614;32.062;34.834;2023-08-06T00:24:11;100425.31;;;29.45;56.95
75936;BME280;64614;32.062;34.834;2023-08-06T00:26:36;100418.19;;;29.44;57.05
75936;BME280;64614;32.062;34.834;2023-08-06T00:29:02;100426.50;;;29.44;57.03
75936;BME280;64614;32.062;34.834;2023-08-06T00:31:28;100423.72;;;29.44;57.23
75936;BME280;64614;32.062;34.834;2023-08-06T00:33:53;100424.91;;;29.43;57.11
75936;BME280;64614;32.062;34.834;2023-08-06T00:36:19;100420.16;;;29.44;57.19
75936;BME280;64614;32.062;34.834;2023-08-06T00:38:44;100418.19;;;29.44;56.82
75936;BME280;64614;32.062;34.834;2023-08-06T00:41:10;100411.06;;;29.43;57.03
75936;BME280;64614;32.062;34.834;2023-08-06T00:43:36;100420.16;;;29.44;56.91
75936;BME280;64614;32.062;34.834;2023-08-06T00:46:01;100420.97;;;29.44;56.91
75936;BME280;64614;32.062;34.834;2023-08-06T00:48:27;100413.84;;;29.43;57.04
75936;BME280;64614;32.062;34.834;2023-08-06T00:50:53;100420.53;;;29.42;57.04
75936;BME280;64614;32.062;34.834;2023-08-06T00:53:19;100415.34;;;29.41;56.82
75936;BME280;64614;32.062;34.834;2023-08-06T00:55:44;100418.91;;;29.41;56.97
75936;BME280;64614;32.062;34.834;2023-08-06T00:58:10;100421.31;;;29.43;57.10
75936;BME280;64614;32.062;34.834;2023-08-06T01:00:36;100414.19;;;29.42;56.97
75936;BME280;64614;32.062;34.834;2023-08-06T01:03:03;100419.72;;;29.42;56.96
75936;BME280;64614;32.062;34.834;2023-08-06T01:05:29;100424.47;;;29.41;56.89
75936;BME280;64614;32.062;34.834;2023-08-06T01:08:28;100423.28;;;29.42;56.78
75936;BME280;64614;32.062;34.834;2023-08-06T01:13:42;100416.94;;;29.42;57.11
75936;BME280;64614;32.062;34.834;2023-08-06T01:16:09;100418.91;;;29.41;56.56
75936;BME280;64614;32.062;34.834;2023-08-06T01:18:35;100424.81;;;29.39;56.88
75936;BME280;64614;32.062;34.834;2023-08-06T01:21:02;100416.53;;;29.39;56.93
75936;BME280;64614;32.062;34.834;2023-08-06T01:23:28;100415.00;;;29.42;56.78
75936;BME280;64614;32.062;34.834;2023-08-06T01:26:37;100418.09;;;29.41;57.02
75936;BME280;64614;32.062;34.834;2023-08-06T01:29:16;100422.84;;;29.40;56.74
75936;BME280;64614;32.062;34.834;2023-08-06T01:31:51;100411.34;;;29.38;56.91
75936;BME280;64614;32.062;34.834;2023-08-06T01:34:21;100411.72;;;29.36;56.87
75936;BME280;64614;32.062;34.834;2023-08-06T01:36:47;100409.75;;;29.37;56.97
75936;BME280;64614;32.062;34.834;2023-08-06T01:39:13;100414.84;;;29.35;56.98
75936;BME280;64614;32.062;34.834;2023-08-06T01:41:39;100416.81;;;29.34;56.75
75936;BME280;64614;32.062;34.834;2023-08-06T01:44:05;100413.66;;;29.36;57.08
75936;BME280;64614;32.062;34.834;2023-08-06T01:46:30;100415.66;;;29.35;56.73
75936;BME280;64614;32.062;34.834;2023-08-06T01:48:56;100415.28;;;29.37;56.95
75936;BME280;64614;32.062;34.834;2023-08-06T01:51:22;100417.63;;;29.35;56.82
75936;BME280;64614;32.062;34.834;2023-08-06T01:53:47;100416.81;;;29.34;57.03
75936;BME280;64614;32.062;34.834;2023-08-06T01:56:13;100416.44;;;29.36;56.90
75936;BME280;64614;32.062;34.834;2023-08-06T01:58:39;100425.91;;;29.35;56.89
75936;BME280;64614;32.062;34.834;2023-08-06T02:01:05;100420.38;;;29.35;57.03
75936;BME280;64614;32.062;34.834;2023-08-06T02:03:30;100420.72;;;29.33;56.98
75936;BME280;64614;32.062;34.834;2023-08-06T02:05:56;100425.09;;;29.34;57.20
75936;BME280;64614;32.062;34.834;2023-08-06T02:08:21;100427.88;;;29.34;56.96
75936;BME280;64614;32.062;34.834;2023-08-06T02:10:47;100429.03;;;29.33;56.97
75936;BME280;64614;32.062;34.834;2023-08-06T02:13:13;100429.03;;;29.33;57.20
75936;BME280;64614;32.062;34.834;2023-08-06T02:15:43;100416.38;;;29.32;56.83
75936;BME280;64614;32.062;34.834;2023-08-06T02:18:09;100421.91;;;29.32;57.20
75936;BME280;64614;32.062;34.834;2023-08-06T02:20:34;100421.91;;;29.32;56.89
75936;BME280;64614;32.062;34.834;2023-08-06T02:23:00;100423.03;;;29.31;57.09
75936;BME280;64614;32.062;34.834;2023-08-06T02:25:25;100415.09;;;29.30;56.94
75936;BME280;64614;32.062;34.834;2023-08-06T02:27:51;100421.44;;;29.30;56.87
75936;BME280;64614;32.062;34.834;2023-08-06T02:30:17;100421.09;;;29.32;57.14
75936;BME280;64614;32.062;34.834;2023-08-06T02:32:42;100425.78;;;29.31;56.69
75936;BME280;64614;32.062;34.834;2023-08-06T02:35:08;100425.78;;;29.31;57.00
75936;BME280;64614;32.062;34.834;2023-08-06T02:37:34;100431.31;;;29.31;57.05
75936;BME280;64614;32.062;34.834;2023-08-06T02:40:00;100436.44;;;29.29;57.21
75936;BME280;64614;32.062;34.834;2023-08-06T02:42:25;100440.81;;;29.30;56.63
75936;BME280;64614;32.062;34.834;2023-08-06T02:44:52;100441.69;;;29.34;56.77
75936;BME280;64614;32.062;34.834;2023-08-06T02:47:20;100447.91;;;29.31;56.71
75936;BME280;64614;32.062;34.834;2023-08-06T02:49:46;100438.75;;;29.27;56.95
75936;BME280;64614;32.062;34.834;2023-08-06T02:52:12;100437.97;;;29.27;56.86
75936;BME280;64614;32.062;34.834;2023-08-06T02:54:37;100446.44;;;29.34;57.04
75936;BME280;64614;32.062;34.834;2023-08-06T02:57:04;100437.31;;;29.33;56.45
75936;BME280;64614;32.062;34.834;2023-08-06T02:59:30;100437.59;;;29.28;56.87
75936;BME280;64614;32.062;34.834;2023-08-06T03:01:56;100435.56;;;29.25;56.90
75936;BME280;64614;32.062;34.834;2023-08-06T03:04:22;100437.53;;;29.24;56.98
75936;BME280;64614;32.062;34.834;2023-08-06T03:06:49;100436.38;;;29.26;56.89
75936;BME280;64614;32.062;34.834;2023-08-06T03:09:16;100441.91;;;29.26;56.67
75936;BME280;64614;32.062;34.834;2023-08-06T03:11:42;100443.41;;;29.23;57.30
75936;BME280;64614;32.062;34.834;2023-08-06T03:14:07;100439.13;;;29.26;56.97
75936;BME280;64614;32.062;34.834;2023-08-06T03:16:33;100450.53;;;29.24;57.03
75936;BME280;64614;32.062;34.834;2023-08-06T03:18:59;100445.00;;;29.24;57.00
75936;BME280;64614;32.062;34.834;2023-08-06T03:21:24;100440.63;;;29.23;56.91
75936;BME280;64614;32.062;34.834;2023-08-06T03:23:50;100445.00;;;29.24;57.01
75936;BME280;64614;32.062;34.834;2023-08-06T03:26:16;100445.38;;;29.22;56.97
75936;BME280;64614;32.062;34.834;2023-08-06T03:28:41;100446.16;;;29.23;56.99
75936;BME280;64614;32.062;34.834;2023-08-06T03:31:07;100450.13;;;29.22;56.80
75936;BME280;64614;32.062;34.834;2023-08-06T03:33:33;100447.69;;;29.20;57.12
75936;BME280;64614;32.062;34.834;2023-08-06T03:35:58;100450.91;;;29.22;57.06
75936;BME280;64614;32.062;34.834;2023-08-06T03:38:24;100455.66;;;29.22;56.97
75936;BME280;64614;32.062;34.834;2023-08-06T03:40:49;100456.44;;;29.22;56.93
75936;BME280;64614;32.062;34.834;2023-08-06T03:43:15;100459.59;;;29.21;56.93
75936;BME280;64614;32.062;34.834;2023-08-06T03:45:41;100465.13;;;29.21;56.83
75936;BME280;64614;32.062;34.834;2023-08-06T03:48:07;100469.81;;;29.20;56.80
75936;BME280;64614;32.062;34.834;2023-08-06T03:50:33;100473.41;;;29.21;57.09
75936;BME280;64614;32.062;34.834;2023-08-06T03:52:59;100476.19;;;29.21;57.00
75936;BME280;64614;32.062;34.834;2023-08-06T03:55:25;100475.34;;;29.20;57.08
75936;BME280;64614;32.062;34.834;2023-08-06T03:57:50;100486.41;;;29.20;57.23
75936;BME280;64614;32.062;34.834;2023-08-06T04:00:18;100484.47;;;29.21;56.80
75936;BME280;64614;32.062;34.834;2023-08-06T04:02:44;100493.47;;;29.18;57.17
75936;BME280;64614;32.062;34.834;2023-08-06T04:05:09;100500.25;;;29.20;56.80
75936;BME280;64614;32.062;34.834;2023-08-06T04:07:35;100505.00;;;29.20;57.04
75936;BME280;64614;32.062;34.834;2023-08-06T04:10:03;100501.94;;;29.25;56.99
75936;BME280;64614;32.062;34.834;2023-08-06T04:12:29;100498.63;;;29.19;56.89
75936;BME280;64614;32.062;34.834;2023-08-06T04:14:57;100507.31;;;29.18;56.82
75936;BME280;64614;32.062;34.834;2023-08-06T04:17:23;100517.22;;;29.19;57.00
75936;BME280;64614;32.062;34.834;2023-08-06T04:19:53;100519.16;;;29.18;57.05
75936;BME280;64614;32.062;34.834;2023-08-06T04:22:20;100516.38;;;29.18;57.04
75936;BME280;64614;32.062;34.834;2023-08-06T04:24:46;100528.28;;;29.19;57.03
75936;BME280;64614;32.062;34.834;2023-08-06T04:27:13;100518.38;;;29.18;56.96
75936;BME280;64614;32.062;34.834;2023-08-06T04:29:40;100519.97;;;29.19;57.11
75936;BME280;64614;32.062;34.834;2023-08-06T04:32:08;100516.84;;;29.20;56.93
75936;BME280;64614;32.062;34.834;2023-08-06T04:34:35;100512.91;;;29.21;56.86
75936;BME280;64614;32.062;34.834;2023-08-06T04:37:01;100517.66;;;29.21;56.78
75936;BME280;64614;32.062;34.834;2023-08-06T04:39:27;100515.69;;;29.21;56.86
75936;BME280;64614;32.062;34.834;2023-08-06T04:41:53;100511.31;;;29.20;56.88
75936;BME280;64614;32.062;34.834;2023-08-06T04:44:18;100516.06;;;29.20;57.00
75936;BME280;64614;32.062;34.834;2023-08-06T04:46:44;100520.41;;;29.21;57.13
75936;BME280;64614;32.062;34.834;2023-08-06T04:49:09;100530.66;;;29.20;56.98
75936;BME280;64614;32.062;34.834;2023-08-06T04:51:35;100524.78;;;29.22;57.12
75936;BME280;64614;32.062;34.834;2023-08-06T04:54:01;100518.81;;;29.20;57.17
75936;BME280;64614;32.062;34.834;2023-08-06T04:56:26;100520.41;;;29.21;56.90
75936;BME280;64614;32.062;34.834;2023-08-06T04:58:52;100531.47;;;29.21;57.02
75936;BME280;64614;32.062;34.834;2023-08-06T05:01:18;100525.59;;;29.22;56.89
75936;BME280;64614;32.062;34.834;2023-08-06T05:03:44;100534.66;;;29.23;56.88
75936;BME280;64614;32.062;34.834;2023-08-06T05:06:10;100532.72;;;29.23;56.88
75936;BME280;64614;32.062;34.834;2023-08-06T05:08:36;100527.56;;;29.22;56.86
75936;BME280;64614;32.062;34.834;2023-08-06T05:11:02;100538.63;;;29.22;57.00
75936;BME280;64614;32.062;34.834;2023-08-06T05:13:27;100540.19;;;29.23;56.93
75936;BME280;64614;32.062;34.834;2023-08-06T05:15:53;100534.66;;;29.23;56.81
75936;BME280;64614;32.062;34.834;2023-08-06T05:18:19;100529.50;;;29.21;57.14
75936;BME280;64614;32.062;34.834;2023-08-06T05:20:45;100532.72;;;29.23;56.93
75936;BME280;64614;32.062;34.834;2023-08-06T05:23:11;100524.78;;;29.22;57.24
75936;BME280;64614;32.062;34.834;2023-08-06T05:25:39;100526.38;;;29.23;57.07
75936;BME280;64614;32.062;34.834;2023-08-06T05:28:05;100532.34;;;29.25;56.81
75936;BME280;64614;32.062;34.834;2023-08-06T05:30:31;100537.09;;;29.24;56.76
75936;BME280;64614;32.062;34.834;2023-08-06T05:32:57;100540.19;;;29.23;56.81
75936;BME280;64614;32.062;34.834;2023-08-06T05:35:23;100542.25;;;29.26;56.65
75936;BME280;64614;32.062;34.834;2023-08-06T05:37:52;100544.56;;;29.24;57.08
75936;BME280;64614;32.062;34.834;2023-08-06T05:40:18;100548.59;;;29.27;56.84
75936;BME280;64614;32.062;34.834;2023-08-06T05:42:44;100538.69;;;29.26;56.88
75936;BME280;64614;32.062;34.834;2023-08-06T05:45:09;100542.69;;;29.28;56.81
75936;BME280;64614;32.062;34.834;2023-08-06T05:47:35;100543.06;;;29.27;56.98
75936;BME280;64614;32.062;34.834;2023-08-06T05:50:01;100543.88;;;29.27;57.04
75936;BME280;64614;32.062;34.834;2023-08-06T05:52:27;100549.03;;;29.29;57.02
75936;BME280;64614;32.062;34.834;2023-08-06T05:54:52;100549.41;;;29.27;56.72
75936;BME280;64614;32.062;34.834;2023-08-06T05:57:18;100537.16;;;29.28;56.93
75936;BME280;64614;32.062;34.834;2023-08-06T05:59:44;100549.03;;;29.29;57.07
75936;BME280;64614;32.062;34.834;2023-08-06T06:02:09;100547.06;;;29.29;57.09
75936;BME280;64614;32.062;34.834;2023-08-06T06:04:37;100549.13;;;29.32;56.82
75936;BME280;64614;32.062;34.834;2023-08-06T06:07:03;100541.97;;;29.31;56.95
75936;BME280;64614;32.062;34.834;2023-08-06T06:09:28;100542.81;;;29.32;56.53
75936;BME280;64614;32.062;34.834;2023-08-06T06:11:54;100545.22;;;29.33;56.74
75936;BME280;64614;32.062;34.834;2023-08-06T06:14:19;100556.28;;;29.33;56.81
75936;BME280;64614;32.062;34.834;2023-08-06T06:16:45;100561.88;;;29.37;57.14
75936;BME280;64614;32.062;34.834;2023-08-06T06:19:12;100561.00;;;29.33;56.78
75936;BME280;64614;32.062;34.834;2023-08-06T06:21:38;100553.50;;;29.33;57.27
75936;BME280;64614;32.062;34.834;2023-08-06T06:24:04;100559.47;;;29.35;57.30
75936;BME280;64614;32.062;34.834;2023-08-06T06:26:31;100555.56;;;29.36;57.23
75936;BME280;64614;32.062;34.834;2023-08-06T06:28:57;100572.16;;;29.36;57.04
75936;BME280;64614;32.062;34.834;2023-08-06T06:31:23;100561.09;;;29.36;56.87
75936;BME280;64614;32.062;34.834;2023-08-06T06:33:49;100554.41;;;29.37;56.94
75936;BME280;64614;32.062;34.834;2023-08-06T06:36:15;100557.16;;;29.37;56.88
75936;BME280;64614;32.062;34.834;2023-08-06T06:38:40;100562.69;;;29.37;57.10
75936;BME280;64614;32.062;34.834;2023-08-06T06:41:06;100556.34;;;29.37;56.88
75936;BME280;64614;32.062;34.834;2023-08-06T06:43:32;100559.56;;;29.39;57.29
75936;BME280;64614;32.062;34.834;2023-08-06T06:46:00;100558.78;;;29.38;56.99
75936;BME280;64614;32.062;34.834;2023-08-06T06:48:29;100564.31;;;29.38;57.04
75936;BME280;64614;32.062;34.834;2023-08-06T06:50:56;100561.94;;;29.41;56.94
75936;BME280;64614;32.062;34.834;2023-08-06T06:53:22;100556.06;;;29.42;57.03
75936;BME280;64614;32.062;34.834;2023-08-06T06:56:01;100562.06;;;29.44;56.78
75936;BME280;64614;32.062;34.834;2023-08-06T06:58:27;100555.78;;;29.47;56.97
75936;BME280;64614;32.062;34.834;2023-08-06T07:00:52;100562.84;;;29.45;57.04
75936;BME280;64614;32.062;34.834;2023-08-06T07:03:20;100568.75;;;29.43;57.19
75936;BME280;64614;32.062;34.834;2023-08-06T07:05:45;100562.84;;;29.45;57.04
75936;BME280;64614;32.062;34.834;2023-08-06T07:08:12;100565.16;;;29.43;57.02
75936;BME280;64614;32.062;34.834;2023-08-06T07:10:38;100560.09;;;29.45;56.89
75936;BME280;64614;32.062;34.834;2023-08-06T07:13:04;100565.63;;;29.45;57.06
75936;BME280;64614;32.062;34.834;2023-08-06T07:15:29;100555.72;;;29.44;57.21
75936;BME280;64614;32.062;34.834;2023-08-06T07:17:55;100559.72;;;29.46;56.88
75936;BME280;64614;32.062;34.834;2023-08-06T07:20:20;100546.69;;;29.47;57.07
75936;BME280;64614;32.062;34.834;2023-08-06T07:22:46;100560.53;;;29.47;57.07
75936;BME280;64614;32.062;34.834;2023-08-06T07:25:12;100555.78;;;29.47;57.11
75936;BME280;64614;32.062;34.834;2023-08-06T07:27:38;100550.25;;;29.47;57.14
75936;BME280;64614;32.062;34.834;2023-08-06T07:30:05;100564.91;;;29.48;57.07
75936;BME280;64614;32.062;34.834;2023-08-06T07:32:31;100562.13;;;29.48;57.09
75936;BME280;64614;32.062;34.834;2023-08-06T07:34:56;100555.78;;;29.47;57.00
75936;BME280;64614;32.062;34.834;2023-08-06T07:37:26;100555.41;;;29.49;57.07
75936;BME280;64614;32.062;34.834;2023-08-06T07:39:54;100556.59;;;29.48;56.99
75936;BME280;64614;32.062;34.834;2023-08-06T07:42:20;100556.59;;;29.48;56.85
75936;BME280;64614;32.062;34.834;2023-08-06T07:44:57;100549.88;;;29.49;56.87
75936;BME280;64614;32.062;34.834;2023-08-06T07:47:23;100547.13;;;29.49;57.34
75936;BME280;64614;32.062;34.834;2023-08-06T07:49:49;100543.09;;;29.46;57.44
75936;BME280;64614;32.062;34.834;2023-08-06T07:52:14;100540.00;;;29.48;57.02
75936;BME280;64614;32.062;34.834;2023-08-06T07:54:40;100545.16;;;29.49;57.14
75936;BME280;64614;32.062;34.834;2023-08-06T07:57:06;100548.72;;;29.50;57.27
75936;BME280;64614;32.062;34.834;2023-08-06T07:59:32;100541.22;;;29.50;57.12
75936;BME280;64614;32.062;34.834;2023-08-06T08:01:58;100538.81;;;29.49;56.75
75936;BME280;64614;32.062;34.834;2023-08-06T08:04:24;100532.94;;;29.50;57.23
75936;BME280;64614;32.062;34.834;2023-08-06T08:06:50;100543.19;;;29.50;56.93
75936;BME280;64614;32.062;34.834;2023-08-06T08:09:16;100526.59;;;29.50;57.01
75936;BME280;64614;32.062;34.834;2023-08-06T08:11:42;100523.81;;;29.50;57.06
75936;BME280;64614;32.062;34.834;2023-08-06T08:14:08;100527.41;;;29.50;57.01
75936;BME280;64614;32.062;34.834;2023-08-06T08:16:33;100529.34;;;29.50;56.78
75936;BME280;64614;32.062;34.834;2023-08-06T08:18:59;100532.94;;;29.50;57.03
75936;BME280;64614;32.062;34.834;2023-08-06T08:21:25;100532.56;;;29.52;57.13
75936;BME280;64614;32.062;34.834;2023-08-06T08:23:51;100534.53;;;29.51;57.04
75936;BME280;64614;32.062;34.834;2023-08-06T08:26:17;100527.03;;;29.52;56.89
75936;BME280;64614;32.062;34.834;2023-08-06T08:28:42;100527.41;;;29.50;57.19
75936;BME280;64614;32.062;34.834;2023-08-06T08:31:09;100534.53;;;29.51;56.68
75936;BME280;64614;32.062;34.834;2023-08-06T08:33:35;100538.09;;;29.52;57.11
75936;BME280;64614;32.062;34.834;2023-08-06T08:36:00;100538.09;;;29.52;57.00
75936;BME280;64614;32.062;34.834;2023-08-06T08:38:26;100543.63;;;29.52;56.71
75936;BME280;64614;32.062;34.834;2023-08-06T08:40:53;100541.31;;;29.54;57.03
75936;BME280;64614;32.062;34.834;2023-08-06T08:43:23;100534.16;;;29.53;56.96
75936;BME280;64614;32.062;34.834;2023-08-06T08:45:53;100528.63;;;29.53;57.17
75936;BME280;64614;32.062;34.834;2023-08-06T08:48:24;100521.50;;;29.52;57.06
75936;BME280;64614;32.062;34.834;2023-08-06T08:50:50;100527.03;;;29.52;57.17
75936;BME280;64614;32.062;34.834;2023-08-06T08:53:16;100529.78;;;29.52;56.88
75936;BME280;64614;32.062;34.834;2023-08-06T08:55:47;100523.47;;;29.51;56.91
75936;BME280;64614;32.062;34.834;2023-08-06T08:58:14;100522.66;;;29.51;57.07
75936;BME280;64614;32.062;34.834;2023-08-06T09:00:45;100527.47;;;29.54;56.94
75936;BME280;64614;32.062;34.834;2023-08-06T09:03:11;100520.34;;;29.53;56.96
75936;BME280;64614;32.062;34.834;2023-08-06T09:05:41;100519.16;;;29.54;56.95
75936;BME280;64614;32.062;34.834;2023-08-06T09:08:11;100523.53;;;29.55;56.88
75936;BME280;64614;32.062;34.834;2023-08-06T09:10:42;100516.41;;;29.54;56.90
75936;BME280;64614;32.062;34.834;2023-08-06T09:13:09;100518.34;;;29.53;56.89
75936;BME280;64614;32.062;34.834;2023-08-06T09:15:34;100513.19;;;29.52;56.74
75936;BME280;64614;32.062;34.834;2023-08-06T09:18:09;100517.56;;;29.53;57.04
75936;BME280;64614;32.062;34.834;2023-08-06T09:20:37;100515.97;;;29.52;56.98
75936;BME280;64614;32.062;34.834;2023-08-06T09:23:10;100515.59;;;29.53;57.16
75936;BME280;64614;32.062;34.834;2023-08-06T09:25:39;100516.41;;;29.54;57.00
75936;BME280;64614;32.062;34.834;2023-08-06T09:28:08;100514.81;;;29.53;56.87
75936;BME280;64614;32.062;34.834;2023-08-06T09:30:35;100508.47;;;29.52;56.83
75936;BME280;64614;32.062;34.834;2023-08-06T09:33:01;100504.91;;;29.52;57.10
75936;BME280;64614;32.062;34.834;2023-08-06T09:35:29;100517.56;;;29.53;57.12
75936;BME280;64614;32.062;34.834;2023-08-06T09:37:55;100516.78;;;29.52;57.07
75936;BME280;64614;32.062;34.834;2023-08-06T09:40:28;100516.41;;;29.54;57.14
75936;BME280;64614;32.062;34.834;2023-08-06T09:42:54;100512.03;;;29.53;56.95
75936;BME280;64614;32.062;34.834;2023-08-06T09:45:21;100506.50;;;29.53;56.94
75936;BME280;64614;32.062;34.834;2023-08-06T09:47:50;100508.09;;;29.54;56.90
75936;BME280;64614;32.062;34.834;2023-08-06T09:50:19;100519.97;;;29.54;56.68
75936;BME280;64614;32.062;34.834;2023-08-06T09:52:47;100512.03;;;29.53;56.74
75936;BME280;64614;32.062;34.834;2023-08-06T09:55:16;100508.09;;;29.54;56.72
75936;BME280;64614;32.062;34.834;2023-08-06T09:57:42;100508.09;;;29.54;56.81
75936;BME280;64614;32.062;34.834;2023-08-06T10:00:11;100507.28;;;29.53;57.02
75936;BME280;64614;32.062;34.834;2023-08-06T10:02:39;100512.81;;;29.53;56.95
75936;BME280;64614;32.062;34.834;2023-08-06T10:05:05;100513.63;;;29.54;57.13
75936;BME280;64614;32.062;34.834;2023-08-06T10:07:31;100510.88;;;29.54;57.13
75936;BME280;64614;32.062;34.834;2023-08-06T10:09:58;100511.66;;;29.54;56.90
75936;BME280;64614;32.062;34.834;2023-08-06T10:12:25;100518.00;;;29.55;56.89
75936;BME280;64614;32.062;34.834;2023-08-06T10:14:53;100512.47;;;29.55;56.83
75936;BME280;64614;32.062;34.834;2023-08-06T10:17:21;100506.94;;;29.55;56.96
75936;BME280;64614;32.062;34.834;2023-08-06T10:19:48;100507.72;;;29.55;57.24
75936;BME280;64614;32.062;34.834;2023-08-06T10:22:17;100510.16;;;29.57;56.86
75936;BME280;64614;32.062;34.834;2023-08-06T10:24:52;100510.16;;;29.57;56.87
75936;BME280;64614;32.062;34.834;2023-08-06T10:29:47;100506.56;;;29.57;56.74
75936;BME280;64614;32.062;34.834;2023-08-06T10:32:14;100501.84;;;29.57;57.09
75936;BME280;64614;32.062;34.834;2023-08-06T10:35:06;100501.47;;;29.59;57.05
75936;BME280;64614;32.062;34.834;2023-08-06T10:37:36;100499.94;;;29.61;56.77
75936;BME280;64614;32.062;34.834;2023-08-06T10:40:02;100496.72;;;29.59;56.89
75936;BME280;64614;32.062;34.834;2023-08-06T10:42:29;100505.41;;;29.58;56.82
75936;BME280;64614;32.062;34.834;2023-08-06T10:45:14;100503.88;;;29.60;56.90
75936;BME280;64614;32.062;34.834;2023-08-06T10:47:41;100489.25;;;29.60;56.83
75936;BME280;64614;32.062;34.834;2023-08-06T10:50:10;100496.72;;;29.59;56.92
75936;BME280;64614;32.062;34.834;2023-08-06T10:52:36;100489.31;;;29.63;56.82
75936;BME280;64614;32.062;34.834;2023-08-06T10:55:01;100491.19;;;29.59;56.84
75936;BME280;64614;32.062;34.834;2023-08-06T10:57:27;100498.34;;;29.60;56.76
75936;BME280;64614;32.062;34.834;2023-08-06T10:59:53;100492.81;;;29.60;56.82
75936;BME280;64614;32.062;34.834;2023-08-06T11:02:18;100487.28;;;29.60;56.79
75936;BME280;64614;32.062;34.834;2023-08-06T11:04:44;100482.91;;;29.59;56.84
75936;BME280;64614;32.062;34.834;2023-08-06T11:07:10;100482.91;;;29.59;56.70
75936;BME280;64614;32.062;34.834;2023-08-06T11:09:36;100483.34;;;29.61;56.73
75936;BME280;64614;32.062;34.834;2023-08-06T11:12:02;100486.94;;;29.62;56.59
75936;BME280;64614;32.062;34.834;2023-08-06T11:14:30;100486.09;;;29.61;56.96
75936;BME280;64614;32.062;34.834;2023-08-06T11:16:56;100484.50;;;29.60;56.72
75936;BME280;64614;32.062;34.834;2023-08-06T11:19:22;100480.56;;;29.61;56.59
75936;BME280;64614;32.062;34.834;2023-08-06T11:21:50;100478.25;;;29.63;56.68
75936;BME280;64614;32.062;34.834;2023-08-06T11:24:17;100474.25;;;29.61;56.79
75936;BME280;64614;32.062;34.834;2023-08-06T11:26:42;100472.28;;;29.61;56.77
75936;BME280;64614;32.062;34.834;2023-08-06T11:29:10;100472.28;;;29.61;56.90
75936;BME280;64614;32.062;34.834;2023-08-06T11:31:36;100475.91;;;29.65;56.58
75936;BME280;64614;32.062;34.834;2023-08-06T11:34:02;100478.69;;;29.65;56.47
75936;BME280;64614;32.062;34.834;2023-08-06T11:36:32;100485.81;;;29.66;56.55
75936;BME280;64614;32.062;34.834;2023-08-06T11:39:02;100473.94;;;29.66;56.64
75936;BME280;64614;32.062;34.834;2023-08-06T11:41:29;100478.69;;;29.65;57.00
75936;BME280;64614;32.062;34.834;2023-08-06T11:43:55;100485.38;;;29.64;56.82
75936;BME280;64614;32.062;34.834;2023-08-06T11:46:21;100483.78;;;29.63;56.38
75936;BME280;64614;32.062;34.834;2023-08-06T11:48:58;100490.47;;;29.62;56.82
75936;BME280;64614;32.062;34.834;2023-08-06T11:51:25;100485.38;;;29.64;57.15
75936;BME280;64614;32.062;34.834;2023-08-06T11:53:57;100479.03;;;29.64;56.96
75936;BME280;64614;32.062;34.834;2023-08-06T11:56:24;100483.78;;;29.63;57.03
75936;BME280;64614;32.062;34.834;2023-08-06T11:58:51;100482.63;;;29.64;56.73
75936;BME280;64614;32.062;34.834;2023-08-06T12:01:18;100475.09;;;29.65;56.78
75936;BME280;64614;32.062;34.834;2023-08-06T12:03:43;100483.78;;;29.63;56.76
75936;BME280;64614;32.062;34.834;2023-08-06T12:06:09;100475.47;;;29.63;56.74
75936;BME280;64614;32.062;34.834;2023-08-06T12:08:35;100473.16;;;29.65;56.89
75936;BME280;64614;32.062;34.834;2023-08-06T12:11:01;100472.34;;;29.65;56.69
75936;BME280;64614;32.062;34.834;2023-08-06T12:13:26;100471.56;;;29.64;56.77
75936;BME280;64614;32.062;34.834;2023-08-06T12:15:54;100486.19;;;29.65;56.88
75936;BME280;64614;32.062;34.834;2023-08-06T12:18:20;100487.00;;;29.65;57.02
75936;BME280;64614;32.062;34.834;2023-08-06T12:20:45;100478.69;;;29.65;56.94
75936;BME280;64614;32.062;34.834;2023-08-06T12:23:11;100478.69;;;29.65;56.78
75936;BME280;64614;32.062;34.834;2023-08-06T12:25:41;100481.47;;;29.65;57.01
75936;BME280;64614;32.062;34.834;2023-08-06T12:28:06;100477.81;;;29.61;57.02
75936;BME280;64614;32.062;34.834;2023-08-06T12:30:33;100485.00;;;29.66;56.96
75936;BME280;64614;32.062;34.834;2023-08-06T12:32:58;100473.16;;;29.65;56.88
75936;BME280;64614;32.062;34.834;2023-08-06T12:35:24;100473.94;;;29.66;56.79
75936;BME280;64614;32.062;34.834;2023-08-06T12:37:51;100473.94;;;29.66;56.82
75936;BME280;64614;32.062;34.834;2023-08-06T12:40:19;100469.28;;;29.70;56.84
75936;BME280;64614;32.062;34.834;2023-08-06T12:42:45;100478.31;;;29.67;57.14
75936;BME280;64614;32.062;34.834;2023-08-06T12:45:11;100469.19;;;29.66;56.76